Woodbine, NJ (08270)

9:16 AM EST en Enero 25, 2015 (GMT -0500)
Rt 47/Tyler Road | Change Station
CLOSE
Current Station
Estación meteorológica personal
Location: Woodbine, NJ
Altura: 15 ft
Estaciones meteorológicas cercanas
Aviso en curso: Winter Storm Watch

Alt 15 ft 39.20 °N, 74.83 °W | Updated 6 minutes ago

Nublado
Nublado
37.9 ° F
Sensación térmica 38 ° F
N
1.0
Viento Variable Viento desde Norte
Gusts 2.0 mph

Hoy
Alta -- | Baja -- ° F
--% Posibilidad de precipitaciones
Ayer
Alta -- | Baja -- ° F
Precip. -- pul
7:12 AM 5:11 PM
Creciente, 32% visible
Presión 29.81 pul
Visibilidad 10.0 Millas
Nubes Baja 4800 ft
Vientos helados 38 ° F
Punto de rocío 33 ° F
Humedad 81%
Precipitaciones 0.00 pul
Espesor de la nieve No disponible.
UV 1 de una escala de 12
Polen .10 de una escala de 12
Calidad del aire No disponible.
Flu Activity No disponible.
METAR KMIV 251354Z AUTO 24007KT 10SM FEW048 03/M02 A2981 RMK AO2 SLP093 T00331017 $

More Conditions Fewer Conditions

Presión 29.81 pul
Visibilidad 10.0 Millas
Nubes Baja 4800 ft
Vientos helados 38 ° F
Punto de rocío 33 ° F
Humedad 81%
Precipitaciones 0.00 pul
Espesor de la nieve No disponible.
UV 1 de una escala de 12
Polen .10 de una escala de 12
Calidad del aire No disponible.
Flu Activity No disponible.
METAR KMIV 251354Z AUTO 24007KT 10SM FEW048 03/M02 A2981 RMK AO2 SLP093 T00331017 $

More Conditions Fewer Conditions

10-Day Weather Forecast

Almanac

Astronomía

Jan. 25, 2015 Salida Puesta
Hora real
Crepúsculo civil
Crepúsculo náutico
Crepúsculo astronómico
Luna
Horas de luz
Horas de luz
Tomorrow will be .
, % of the Moon is Illuminated

Extremos de hoy

Máximos del estado Bajos del estado

Community

WunderPhotos

Upload Photos

1,789,893 ¡fotos cargadas!

WunderBlogs® & News

Nearby

Calidad del aire

  Calidad del aire Índice AQ Contaminante
Not available.

Grosos de nieve

Estación Profundido Altura

Actividad de terremotos

Ciudad Distance Mag. Tiempo y dato
Magnitud mínima muestra es 2,5.

Temperaturas de aguas costeras

Lugar Temperatura

Estaciones meteorológicas cercanas